createdAt,value
2023-12-04T00:00:33.025Z,3.70
2023-12-04T00:03:00.351Z,3.60
2023-12-04T00:05:27.198Z,3.70
2023-12-04T00:07:54.148Z,3.70
2023-12-04T00:10:21.252Z,3.70
2023-12-04T00:12:48.224Z,3.70
2023-12-04T00:15:15.027Z,3.70
2023-12-04T00:17:41.914Z,3.70
2023-12-04T00:20:10.353Z,3.70
2023-12-04T00:22:37.670Z,3.70
2023-12-04T00:25:06.001Z,3.70
2023-12-04T00:27:32.810Z,3.70
2023-12-04T00:29:59.539Z,3.70
2023-12-04T00:32:26.337Z,3.60
2023-12-04T00:34:53.916Z,3.70
2023-12-04T00:37:20.700Z,3.60
2023-12-04T00:39:47.458Z,3.60
2023-12-04T00:42:14.178Z,3.70
2023-12-04T00:44:40.894Z,3.70
2023-12-04T00:47:07.621Z,3.70
2023-12-04T00:49:34.450Z,3.70
2023-12-04T00:52:01.711Z,3.70
2023-12-04T00:54:28.432Z,3.70
2023-12-04T00:56:55.153Z,3.70
2023-12-04T00:59:22.001Z,3.70
2023-12-04T01:01:48.798Z,3.70
2023-12-04T01:04:15.509Z,3.70
2023-12-04T01:06:42.292Z,3.70
2023-12-04T01:09:08.999Z,3.70
2023-12-04T01:11:37.837Z,3.70
2023-12-04T01:14:04.668Z,3.70
2023-12-04T01:16:31.944Z,3.70
2023-12-04T01:18:59.717Z,3.70
2023-12-04T01:21:26.442Z,3.70
2023-12-04T01:23:53.668Z,3.70
2023-12-04T01:26:20.371Z,3.70
2023-12-04T01:28:47.111Z,3.70
2023-12-04T01:31:13.839Z,3.70
2023-12-04T01:33:40.674Z,3.70
2023-12-04T01:36:07.829Z,3.70
2023-12-04T01:38:34.494Z,3.70
2023-12-04T01:41:01.727Z,3.70
2023-12-04T01:43:29.790Z,3.70
2023-12-04T01:45:57.567Z,3.70
2023-12-04T01:48:26.403Z,3.60
2023-12-04T01:50:54.024Z,3.70
2023-12-04T01:53:20.849Z,3.70
2023-12-04T01:55:48.009Z,3.60
2023-12-04T01:58:14.792Z,3.70
2023-12-04T02:00:41.571Z,3.70
2023-12-04T02:03:09.501Z,3.60
2023-12-04T02:05:37.070Z,3.70
2023-12-04T02:08:04.803Z,3.60
2023-12-04T02:10:31.561Z,3.60
2023-12-04T02:12:58.441Z,3.60
2023-12-04T02:15:25.312Z,3.70
2023-12-04T02:17:52.375Z,3.60
2023-12-04T02:20:19.103Z,3.60
2023-12-04T02:22:45.790Z,3.70
2023-12-04T02:25:25.841Z,3.60
2023-12-04T02:28:04.096Z,3.60
2023-12-04T02:30:33.707Z,3.60
2023-12-04T02:33:02.505Z,3.60
2023-12-04T02:35:33.793Z,3.60
2023-12-04T02:38:02.467Z,3.60
2023-12-04T02:40:29.267Z,3.60
2023-12-04T02:42:56.098Z,3.60
2023-12-04T02:45:22.870Z,3.60
2023-12-04T02:47:49.666Z,3.60
2023-12-04T02:50:16.506Z,3.60
2023-12-04T02:52:43.239Z,3.50
2023-12-04T02:55:10.020Z,3.50
2023-12-04T02:57:36.887Z,3.50
2023-12-04T03:00:05.084Z,3.50
2023-12-04T03:02:31.797Z,3.50
2023-12-04T03:04:58.499Z,3.50
2023-12-04T03:07:25.772Z,3.50
2023-12-04T03:09:52.480Z,3.50
2023-12-04T03:12:19.180Z,3.50
2023-12-04T03:14:45.926Z,3.40
2023-12-04T03:17:12.729Z,3.50
2023-12-04T03:19:39.469Z,3.40
2023-12-04T03:22:06.241Z,3.40
2023-12-04T03:24:32.972Z,3.50
2023-12-04T03:26:59.701Z,3.50
2023-12-04T03:29:26.395Z,3.50
2023-12-04T03:31:53.113Z,3.50
2023-12-04T03:34:19.842Z,3.50
2023-12-04T03:36:46.764Z,3.40
2023-12-04T03:39:13.593Z,3.40
2023-12-04T03:41:40.300Z,3.40
2023-12-04T03:44:07.010Z,3.40
2023-12-04T03:46:33.834Z,3.50
2023-12-04T03:49:00.715Z,3.50
2023-12-04T03:51:27.497Z,3.40
2023-12-04T03:53:54.791Z,3.40
2023-12-04T03:56:21.562Z,3.40
2023-12-04T03:58:48.280Z,3.40
2023-12-04T04:01:15.048Z,3.40
2023-12-04T04:03:43.485Z,3.40
2023-12-04T04:06:13.108Z,3.40
2023-12-04T04:08:39.822Z,3.40
2023-12-04T04:11:06.771Z,3.40
2023-12-04T04:13:33.573Z,3.40
2023-12-04T04:16:00.339Z,3.40
2023-12-04T04:18:27.171Z,3.40
2023-12-04T04:20:53.907Z,3.40
2023-12-04T04:23:20.632Z,3.50
2023-12-04T04:25:47.306Z,3.50
2023-12-04T04:28:14.073Z,3.50
2023-12-04T04:30:41.348Z,3.50
2023-12-04T04:33:08.210Z,3.50
2023-12-04T04:35:34.939Z,3.50
2023-12-04T04:38:01.644Z,3.50
2023-12-04T04:40:28.381Z,3.50
2023-12-04T04:42:55.188Z,3.50
2023-12-04T04:45:21.871Z,3.50
2023-12-04T04:47:48.637Z,3.50
2023-12-04T04:50:15.559Z,3.50
2023-12-04T04:52:42.277Z,3.50
2023-12-04T04:55:09.341Z,3.50
2023-12-04T04:57:36.107Z,3.50
2023-12-04T05:00:03.056Z,3.50
2023-12-04T05:02:29.772Z,3.50
2023-12-04T05:04:56.663Z,3.50
2023-12-04T05:07:23.463Z,3.50
2023-12-04T05:09:50.209Z,3.50
2023-12-04T05:12:16.880Z,3.50
2023-12-04T05:14:43.613Z,3.50
2023-12-04T05:17:10.287Z,3.50
2023-12-04T05:19:37.080Z,3.50
2023-12-04T05:22:04.096Z,3.50
2023-12-04T05:24:30.892Z,3.50
2023-12-04T05:26:57.597Z,3.60
2023-12-04T05:29:24.304Z,3.50
2023-12-04T05:31:50.984Z,3.60
2023-12-04T05:34:17.788Z,3.50
2023-12-04T05:36:44.516Z,3.60
2023-12-04T05:39:11.263Z,3.60
2023-12-04T05:41:37.987Z,3.50
2023-12-04T05:44:04.822Z,3.60
2023-12-04T05:46:31.540Z,3.60
2023-12-04T05:48:58.290Z,3.60
2023-12-04T05:51:25.044Z,3.60
2023-12-04T05:53:51.838Z,3.60
2023-12-04T05:56:18.617Z,3.50
2023-12-04T05:58:45.344Z,3.50
2023-12-04T06:01:12.084Z,3.50
2023-12-04T06:03:38.890Z,3.50
2023-12-04T06:06:05.945Z,3.60
2023-12-04T06:08:32.722Z,3.60
2023-12-04T06:10:59.558Z,3.50
2023-12-04T06:13:26.367Z,3.50
2023-12-04T06:15:53.630Z,3.50
2023-12-04T06:18:21.769Z,3.50
2023-12-04T06:20:48.584Z,3.50
2023-12-04T06:23:15.964Z,3.50
2023-12-04T06:25:42.993Z,3.50
2023-12-04T06:28:10.237Z,3.50
2023-12-04T06:30:37.272Z,3.50
2023-12-04T06:33:04.266Z,3.50
2023-12-04T06:35:31.492Z,3.50
2023-12-04T06:38:04.968Z,3.50
2023-12-04T06:40:33.158Z,3.50
2023-12-04T06:43:00.981Z,3.60
2023-12-04T06:45:28.366Z,3.50
2023-12-04T06:47:55.306Z,3.50
2023-12-04T06:50:22.035Z,3.50
2023-12-04T06:52:48.767Z,3.50
2023-12-04T06:55:15.632Z,3.50
2023-12-04T06:57:42.432Z,3.50
2023-12-04T07:00:21.114Z,3.50
2023-12-04T07:02:50.577Z,3.50
2023-12-04T07:05:18.381Z,3.50
2023-12-04T07:07:45.151Z,3.50
2023-12-04T07:10:15.737Z,3.50
2023-12-04T07:12:43.219Z,3.50
2023-12-04T07:15:12.004Z,3.50
2023-12-04T07:17:39.278Z,3.50
2023-12-04T07:20:09.529Z,3.50
2023-12-04T07:22:38.647Z,3.50
2023-12-04T07:25:08.620Z,3.50
2023-12-04T07:27:36.214Z,3.50
2023-12-04T07:30:04.264Z,3.50
2023-12-04T07:32:31.456Z,3.50
2023-12-04T07:34:59.940Z,3.50
2023-12-04T07:37:26.818Z,3.50
2023-12-04T07:39:53.841Z,3.50
2023-12-04T07:42:20.642Z,3.50
2023-12-04T07:44:48.069Z,3.50
2023-12-04T07:47:15.185Z,3.50
2023-12-04T07:49:42.712Z,3.50
2023-12-04T07:52:09.632Z,3.50
2023-12-04T07:54:36.901Z,3.50
2023-12-04T07:57:04.669Z,3.50
2023-12-04T07:59:31.890Z,3.50
2023-12-04T08:01:58.668Z,3.50
2023-12-04T08:04:25.471Z,3.50
2023-12-04T08:06:52.277Z,3.50
2023-12-04T08:09:19.063Z,3.50
2023-12-04T08:11:46.456Z,3.50
2023-12-04T08:14:13.261Z,3.60
2023-12-04T08:16:40.178Z,3.50
2023-12-04T08:19:07.095Z,3.60
2023-12-04T08:21:34.191Z,3.60
2023-12-04T08:24:01.657Z,3.50
2023-12-04T08:26:28.441Z,3.60
2023-12-04T08:28:55.204Z,3.60
2023-12-04T08:31:21.904Z,3.60
2023-12-04T08:33:48.796Z,3.60
2023-12-04T08:36:16.469Z,3.60
2023-12-04T08:38:43.465Z,3.70
2023-12-04T08:41:10.238Z,3.70
2023-12-04T08:43:37.012Z,3.60
2023-12-04T08:46:04.103Z,3.70
2023-12-04T08:48:31.225Z,3.70
2023-12-04T08:50:58.042Z,3.70
2023-12-04T08:53:24.776Z,3.70
2023-12-04T08:55:53.193Z,3.70
2023-12-04T08:58:20.052Z,3.70
2023-12-04T09:00:46.971Z,3.70
2023-12-04T09:03:18.764Z,3.70
2023-12-04T09:05:53.863Z,3.80
2023-12-04T09:08:31.510Z,3.80
2023-12-04T09:11:18.200Z,3.80
2023-12-04T09:13:49.685Z,3.80
2023-12-04T09:16:16.596Z,3.80
2023-12-04T09:18:43.629Z,3.90
2023-12-04T09:21:10.562Z,3.90
2023-12-04T09:23:37.389Z,3.80
2023-12-04T09:26:04.490Z,3.90
2023-12-04T09:28:31.298Z,3.90
2023-12-04T09:30:58.046Z,3.90
2023-12-04T09:33:24.912Z,3.90
2023-12-04T09:35:51.724Z,3.90
2023-12-04T09:38:18.640Z,4.00
2023-12-04T09:40:45.573Z,4.00
2023-12-04T09:43:12.751Z,4.00
2023-12-04T09:45:40.518Z,4.00
2023-12-04T09:48:07.593Z,4.00
2023-12-04T09:50:34.915Z,4.00
2023-12-04T09:53:03.476Z,4.00
2023-12-04T09:55:30.242Z,4.00
2023-12-04T09:57:58.049Z,4.00
2023-12-04T10:00:25.406Z,4.10
2023-12-04T10:02:53.227Z,4.10
2023-12-04T10:05:20.133Z,4.10
2023-12-04T10:07:46.841Z,4.10
2023-12-04T10:10:15.324Z,4.10
2023-12-04T10:12:43.678Z,4.10
2023-12-04T10:15:12.183Z,4.10
2023-12-04T10:17:41.240Z,4.10
2023-12-04T10:20:18.253Z,4.20
2023-12-04T10:23:00.941Z,4.20
2023-12-04T10:25:32.246Z,4.20
2023-12-04T10:28:10.242Z,4.20
2023-12-04T10:30:37.163Z,4.20
2023-12-04T10:33:06.517Z,4.20
2023-12-04T10:35:37.309Z,4.20
2023-12-04T10:38:06.034Z,4.20
2023-12-04T10:40:38.031Z,4.20
2023-12-04T10:43:13.772Z,4.30
2023-12-04T10:45:42.766Z,4.20
2023-12-04T10:48:11.496Z,4.30
2023-12-04T10:50:39.998Z,4.30
2023-12-04T10:53:08.559Z,4.30
2023-12-04T10:55:35.849Z,4.30
2023-12-04T10:58:07.835Z,4.30
2023-12-04T11:00:39.846Z,4.30
2023-12-04T11:03:10.833Z,4.30
2023-12-04T11:05:40.360Z,4.30
2023-12-04T11:08:15.696Z,4.30
2023-12-04T11:11:00.084Z,4.40
2023-12-04T11:13:31.951Z,4.30
2023-12-04T11:16:28.973Z,4.40
2023-12-04T11:19:04.368Z,4.40
2023-12-04T11:21:33.942Z,4.30
2023-12-04T11:24:01.514Z,4.40
2023-12-04T11:26:29.269Z,4.40
2023-12-04T11:28:56.956Z,4.40
2023-12-04T11:31:23.811Z,4.40
2023-12-04T11:33:50.709Z,4.40
2023-12-04T11:36:18.284Z,4.40
2023-12-04T11:38:48.840Z,4.50
2023-12-04T11:41:23.169Z,4.40
2023-12-04T11:43:55.823Z,4.50
2023-12-04T11:46:25.207Z,4.50
2023-12-04T11:48:56.894Z,4.50
2023-12-04T11:51:47.559Z,4.50
2023-12-04T11:54:19.119Z,4.50
2023-12-04T11:57:26.941Z,4.50
2023-12-04T12:00:26.409Z,4.60
2023-12-04T12:03:15.441Z,4.60
2023-12-04T12:05:40.419Z,4.60
2023-12-04T12:08:08.671Z,4.60
2023-12-04T12:10:35.736Z,4.60
2023-12-04T12:13:02.858Z,4.60
2023-12-04T12:15:30.460Z,4.60
2023-12-04T12:17:57.434Z,4.60
2023-12-04T12:20:24.457Z,4.70
2023-12-04T12:22:51.293Z,4.70
2023-12-04T12:25:19.455Z,4.70
2023-12-04T12:27:46.837Z,4.70
2023-12-04T12:30:14.276Z,4.70
2023-12-04T12:32:41.170Z,4.70
2023-12-04T12:35:10.973Z,4.80
2023-12-04T12:37:40.313Z,4.80
2023-12-04T12:40:10.599Z,4.80
2023-12-04T12:42:45.106Z,4.80
2023-12-04T12:45:13.497Z,4.80
2023-12-04T12:47:44.596Z,4.80
2023-12-04T12:50:13.507Z,4.80
2023-12-04T12:52:41.385Z,4.80
2023-12-04T12:55:08.473Z,4.80
2023-12-04T12:57:35.270Z,4.80
2023-12-04T13:00:02.459Z,4.80
2023-12-04T13:02:29.473Z,4.90
2023-12-04T13:04:57.229Z,4.80
2023-12-04T13:07:24.239Z,4.90
2023-12-04T13:09:51.212Z,4.80
2023-12-04T13:12:18.097Z,4.80
2023-12-04T13:14:44.837Z,4.90
2023-12-04T13:17:11.974Z,4.80
2023-12-04T13:19:38.718Z,4.90
2023-12-04T13:22:05.986Z,4.90
2023-12-04T13:24:33.113Z,4.90
2023-12-04T13:26:59.844Z,4.90
2023-12-04T13:29:26.626Z,4.90
2023-12-04T13:31:54.061Z,4.90
2023-12-04T13:34:21.233Z,4.90
2023-12-04T13:36:47.976Z,4.90
2023-12-04T13:39:18.248Z,4.90
2023-12-04T13:42:06.311Z,4.90
2023-12-04T13:44:34.322Z,4.90
2023-12-04T13:47:01.423Z,4.90
2023-12-04T13:49:28.283Z,4.90
2023-12-04T13:51:55.919Z,4.90
2023-12-04T13:54:29.187Z,4.90
2023-12-04T13:56:57.461Z,4.90
2023-12-04T13:59:25.226Z,4.90
2023-12-04T14:01:52.804Z,4.90
2023-12-04T14:04:21.093Z,4.90
2023-12-04T14:06:48.637Z,4.90
2023-12-04T14:09:15.836Z,4.90
2023-12-04T14:11:45.727Z,4.90
2023-12-04T14:14:14.187Z,4.90
2023-12-04T14:16:42.908Z,4.90
2023-12-04T14:19:09.808Z,4.90
2023-12-04T14:21:36.644Z,4.90
2023-12-04T14:24:03.442Z,4.90
2023-12-04T14:26:30.247Z,4.90
2023-12-04T14:28:58.514Z,4.90
2023-12-04T14:31:25.484Z,4.90
2023-12-04T14:33:54.028Z,4.90
2023-12-04T14:36:20.827Z,4.90
2023-12-04T14:38:47.621Z,4.90
2023-12-04T14:41:14.539Z,4.90
2023-12-04T14:43:41.314Z,4.90
2023-12-04T14:46:09.597Z,4.90
2023-12-04T14:48:39.786Z,4.90
2023-12-04T14:51:07.432Z,4.80
2023-12-04T14:53:45.155Z,4.80
2023-12-04T14:56:34.192Z,4.90
2023-12-04T14:59:42.589Z,4.80
2023-12-04T15:02:29.418Z,4.80
2023-12-04T15:05:05.443Z,4.80
2023-12-04T15:07:35.411Z,4.80
2023-12-04T15:10:25.480Z,4.80
2023-12-04T15:13:12.188Z,4.80
2023-12-04T15:16:01.602Z,4.80
2023-12-04T15:18:54.838Z,4.80
2023-12-04T15:21:23.231Z,4.70
2023-12-04T15:23:50.287Z,4.80
2023-12-04T15:26:21.563Z,4.70
2023-12-04T15:28:49.803Z,4.70
2023-12-04T15:31:17.727Z,4.70
2023-12-04T15:33:44.480Z,4.70
2023-12-04T15:36:11.784Z,4.70
2023-12-04T15:38:38.709Z,4.70
2023-12-04T15:41:05.834Z,4.70
2023-12-04T15:43:32.911Z,4.70
2023-12-04T15:45:59.751Z,4.70
2023-12-04T15:48:26.787Z,4.70
2023-12-04T15:50:54.269Z,4.70
2023-12-04T15:53:21.314Z,4.70
2023-12-04T15:55:48.030Z,4.70
2023-12-04T15:58:14.756Z,4.70
2023-12-04T16:00:41.526Z,4.70
2023-12-04T16:03:08.447Z,4.70
2023-12-04T16:05:36.377Z,4.70
2023-12-04T16:08:03.274Z,4.70
2023-12-04T16:10:30.022Z,4.60
2023-12-04T16:12:56.813Z,4.70
2023-12-04T16:15:23.978Z,4.60
2023-12-04T16:17:50.838Z,4.70
2023-12-04T16:20:17.803Z,4.60
2023-12-04T16:22:44.974Z,4.70
2023-12-04T16:25:18.327Z,4.60
2023-12-04T16:27:46.199Z,4.60
2023-12-04T16:30:14.033Z,4.60
2023-12-04T16:32:41.410Z,4.60
2023-12-04T16:35:09.688Z,4.60
2023-12-04T16:37:37.559Z,4.60
2023-12-04T16:40:05.421Z,4.60
2023-12-04T16:42:32.240Z,4.60
2023-12-04T16:44:58.974Z,4.60
2023-12-04T16:47:25.734Z,4.60
2023-12-04T16:49:52.470Z,4.60
2023-12-04T16:52:19.207Z,4.50
2023-12-04T16:54:47.856Z,4.60
2023-12-04T16:57:15.405Z,4.50
2023-12-04T16:59:42.193Z,4.60
2023-12-04T17:02:09.038Z,4.60
2023-12-04T17:04:36.038Z,4.60
2023-12-04T17:07:04.142Z,4.50
2023-12-04T17:09:31.095Z,4.60
2023-12-04T17:11:57.856Z,4.60
2023-12-04T17:14:24.547Z,4.50
2023-12-04T17:16:51.549Z,4.50
2023-12-04T17:19:18.562Z,4.50
2023-12-04T17:21:45.406Z,4.50
2023-12-04T17:24:12.203Z,4.60
2023-12-04T17:26:38.968Z,4.50
2023-12-04T17:29:05.747Z,4.50
2023-12-04T17:31:32.653Z,4.50
2023-12-04T17:33:59.484Z,4.50
2023-12-04T17:36:26.463Z,4.50
2023-12-04T17:38:53.307Z,4.50
2023-12-04T17:41:20.006Z,4.50
2023-12-04T17:43:46.960Z,4.50
2023-12-04T17:46:14.239Z,4.60
2023-12-04T17:48:42.890Z,4.50
2023-12-04T17:51:17.002Z,4.50
2023-12-04T17:53:44.288Z,4.60
2023-12-04T17:56:11.561Z,4.50
2023-12-04T17:58:38.272Z,4.60
2023-12-04T18:01:06.285Z,4.60
2023-12-04T18:03:33.684Z,4.60
2023-12-04T18:06:00.628Z,4.50
2023-12-04T18:08:29.921Z,4.50
2023-12-04T18:10:56.865Z,4.50
2023-12-04T18:13:23.626Z,4.50
2023-12-04T18:15:50.378Z,4.50
2023-12-04T18:18:18.428Z,4.50
2023-12-04T18:20:47.656Z,4.50
2023-12-04T18:23:14.421Z,4.50
2023-12-04T18:25:41.285Z,4.40
2023-12-04T18:28:10.297Z,4.40
2023-12-04T18:30:37.812Z,4.40
2023-12-04T18:33:05.939Z,4.40
2023-12-04T18:35:32.980Z,4.40
2023-12-04T18:38:12.661Z,4.40
2023-12-04T18:40:39.696Z,4.40
2023-12-04T18:43:09.485Z,4.40
2023-12-04T18:45:36.836Z,4.40
2023-12-04T18:48:11.928Z,4.40
2023-12-04T18:50:41.327Z,4.40
2023-12-04T18:53:10.976Z,4.40
2023-12-04T18:55:40.381Z,4.40
2023-12-04T18:58:10.560Z,4.40
2023-12-04T19:00:40.066Z,4.40
2023-12-04T19:03:07.050Z,4.40
2023-12-04T19:05:33.878Z,4.40
2023-12-04T19:08:02.659Z,4.30
2023-12-04T19:10:29.563Z,4.40
2023-12-04T19:12:57.048Z,4.30
2023-12-04T19:15:25.457Z,4.30
2023-12-04T19:17:52.352Z,4.30
2023-12-04T19:20:19.094Z,4.30
2023-12-04T19:22:45.831Z,4.30
2023-12-04T19:25:12.661Z,4.30
2023-12-04T19:27:39.435Z,4.30
2023-12-04T19:30:08.427Z,4.20
2023-12-04T19:32:35.279Z,4.20
2023-12-04T19:35:02.066Z,4.30
2023-12-04T19:37:28.764Z,4.30
2023-12-04T19:39:55.679Z,4.20
2023-12-04T19:42:24.915Z,4.30
2023-12-04T19:44:51.650Z,4.20
2023-12-04T19:47:18.424Z,4.30
2023-12-04T19:49:45.755Z,4.30
2023-12-04T19:52:12.574Z,4.30
2023-12-04T19:54:43.060Z,4.20
2023-12-04T19:57:10.128Z,4.20
2023-12-04T19:59:38.410Z,4.20
2023-12-04T20:02:06.069Z,4.20
2023-12-04T20:04:33.288Z,4.20
2023-12-04T20:07:00.438Z,4.30
2023-12-04T20:09:27.440Z,4.30
2023-12-04T20:11:54.558Z,4.30
2023-12-04T20:14:21.316Z,4.30
2023-12-04T20:16:49.663Z,4.30
2023-12-04T20:19:16.760Z,4.30
2023-12-04T20:21:43.719Z,4.30
2023-12-04T20:24:10.605Z,4.30
2023-12-04T20:26:37.442Z,4.30
2023-12-04T20:29:04.156Z,4.30
2023-12-04T20:31:31.568Z,4.30
2023-12-04T20:33:58.462Z,4.30
2023-12-04T20:36:25.425Z,4.30
2023-12-04T20:38:52.454Z,4.30
2023-12-04T20:41:21.653Z,4.30
2023-12-04T20:43:48.426Z,4.30
2023-12-04T20:46:16.634Z,4.30
2023-12-04T20:48:43.566Z,4.30
2023-12-04T20:51:10.448Z,4.30
2023-12-04T20:53:37.438Z,4.30
2023-12-04T20:56:04.480Z,4.30
2023-12-04T20:58:31.192Z,4.30
2023-12-04T21:00:57.937Z,4.30
2023-12-04T21:03:24.746Z,4.30
2023-12-04T21:05:51.774Z,4.30
2023-12-04T21:08:19.559Z,4.30
2023-12-04T21:10:46.578Z,4.30
2023-12-04T21:13:13.328Z,4.30
2023-12-04T21:15:40.165Z,4.30
2023-12-04T21:18:07.276Z,4.30
2023-12-04T21:20:34.098Z,4.30
2023-12-04T21:23:00.908Z,4.30
2023-12-04T21:25:27.675Z,4.30
2023-12-04T21:27:54.451Z,4.30
2023-12-04T21:30:22.469Z,4.30
2023-12-04T21:32:49.553Z,4.30
2023-12-04T21:35:16.480Z,4.30
2023-12-04T21:37:43.198Z,4.30
2023-12-04T21:40:10.522Z,4.30
2023-12-04T21:42:37.235Z,4.30
2023-12-04T21:45:05.777Z,4.30
2023-12-04T21:47:33.719Z,4.30
2023-12-04T21:50:00.465Z,4.30
2023-12-04T21:52:27.337Z,4.30
2023-12-04T21:54:54.051Z,4.30
2023-12-04T21:57:21.597Z,4.30
2023-12-04T21:59:48.501Z,4.30
2023-12-04T22:02:15.228Z,4.30
2023-12-04T22:04:42.085Z,4.30
2023-12-04T22:07:09.128Z,4.40
2023-12-04T22:09:36.060Z,4.30
2023-12-04T22:12:03.052Z,4.30
2023-12-04T22:14:29.741Z,4.40
2023-12-04T22:16:56.436Z,4.40
2023-12-04T22:19:23.516Z,4.40
2023-12-04T22:21:50.364Z,4.40
2023-12-04T22:24:17.300Z,4.40
2023-12-04T22:26:44.738Z,4.40
2023-12-04T22:29:11.475Z,4.40
2023-12-04T22:31:38.411Z,4.40
2023-12-04T22:34:05.148Z,4.40
2023-12-04T22:36:32.347Z,4.40
2023-12-04T22:38:59.558Z,4.40
2023-12-04T22:41:26.832Z,4.40
2023-12-04T22:43:53.684Z,4.40
2023-12-04T22:46:20.449Z,4.40
2023-12-04T22:48:49.481Z,4.40
2023-12-04T22:51:17.414Z,4.40
2023-12-04T22:53:44.345Z,4.40
2023-12-04T22:56:11.621Z,4.40
2023-12-04T22:58:39.533Z,4.40
2023-12-04T23:01:07.529Z,4.40
2023-12-04T23:03:34.307Z,4.40
2023-12-04T23:06:01.170Z,4.40
2023-12-04T23:08:27.921Z,4.40
2023-12-04T23:10:54.811Z,4.40
2023-12-04T23:13:21.926Z,4.40
2023-12-04T23:15:48.750Z,4.40
2023-12-04T23:18:15.754Z,4.40
2023-12-04T23:20:43.035Z,4.50
2023-12-04T23:23:10.374Z,4.40
2023-12-04T23:25:37.131Z,4.50
2023-12-04T23:28:04.540Z,4.50
2023-12-04T23:30:31.318Z,4.50
2023-12-04T23:32:58.193Z,4.40
2023-12-04T23:35:24.933Z,4.40
2023-12-04T23:37:51.803Z,4.40
2023-12-04T23:40:18.527Z,4.40
2023-12-04T23:42:45.266Z,4.40
2023-12-04T23:45:12.080Z,4.40
2023-12-04T23:47:38.890Z,4.40
2023-12-04T23:50:06.247Z,4.40
2023-12-04T23:52:33.331Z,4.40
2023-12-04T23:55:00.141Z,4.40
2023-12-04T23:57:26.940Z,4.40
2023-12-04T23:59:53.732Z,4.40
